sensor_id;sensor_type;location;lat;lon;timestamp;pressure;altitude;pressure_sealevel;temperature;humidity
7824;BME280;3957;48.61947800;9.05303100;2023-05-14T00:00:56;96072.34;;;9.11;100.00
7824;BME280;3957;48.61947800;9.05303100;2023-05-14T00:01:57;96077.66;;;9.11;100.00
7824;BME280;3957;48.61947800;9.05303100;2023-05-14T00:02:59;96075.84;;;9.12;100.00
7824;BME280;3957;48.61947800;9.05303100;2023-05-14T00:04:02;96072.72;;;9.08;100.00
7824;BME280;3957;48.61947800;9.05303100;2023-05-14T00:05:04;96070.06;;;9.08;100.00
7824;BME280;3957;48.61947800;9.05303100;2023-05-14T00:06:06;96071.91;;;9.08;100.00
7824;BME280;3957;48.61947800;9.05303100;2023-05-14T00:07:09;96066.38;;;9.09;100.00
7824;BME280;3957;48.61947800;9.05303100;2023-05-14T00:08:11;96069.06;;;9.09;100.00
7824;BME280;3957;48.61947800;9.05303100;2023-05-14T00:09:13;96062.25;;;9.07;100.00
7824;BME280;3957;48.61947800;9.05303100;2023-05-14T00:10:15;96068.25;;;9.09;100.00
7824;BME280;3957;48.61947800;9.05303100;2023-05-14T00:11:17;96065.56;;;9.09;100.00
7824;BME280;3957;48.61947800;9.05303100;2023-05-14T00:12:19;96067.38;;;9.08;100.00
7824;BME280;3957;48.61947800;9.05303100;2023-05-14T00:13:21;96071.53;;;9.11;100.00
7824;BME280;3957;48.61947800;9.05303100;2023-05-14T00:14:22;96070.06;;;9.08;100.00
7824;BME280;3957;48.61947800;9.05303100;2023-05-14T00:15:24;96063.72;;;9.09;100.00
7824;BME280;3957;48.61947800;9.05303100;2023-05-14T00:16:25;96061.66;;;9.11;100.00
7824;BME280;3957;48.61947800;9.05303100;2023-05-14T00:17:27;96063.72;;;9.09;100.00
7824;BME280;3957;48.61947800;9.05303100;2023-05-14T00:18:29;96051.38;;;9.08;100.00
7824;BME280;3957;48.61947800;9.05303100;2023-05-14T00:19:30;96059.59;;;9.07;100.00
7824;BME280;3957;48.61947800;9.05303100;2023-05-14T00:20:32;96052.38;;;9.07;100.00
7824;BME280;3957;48.61947800;9.05303100;2023-05-14T00:21:33;96059.19;;;9.10;100.00
7824;BME280;3957;48.61947800;9.05303100;2023-05-14T00:22:35;96056.50;;;9.10;100.00
7824;BME280;3957;48.61947800;9.05303100;2023-05-14T00:23:37;96059.19;;;9.10;100.00
7824;BME280;3957;48.61947800;9.05303100;2023-05-14T00:24:39;96054.88;;;9.09;100.00
7824;BME280;3957;48.61947800;9.05303100;2023-05-14T00:25:40;96054.03;;;9.08;100.00
7824;BME280;3957;48.61947800;9.05303100;2023-05-14T00:26:42;96051.56;;;9.07;100.00
7824;BME280;3957;48.61947800;9.05303100;2023-05-14T00:27:44;96057.97;;;9.12;100.00
7824;BME280;3957;48.61947800;9.05303100;2023-05-14T00:28:45;96053.03;;;9.09;100.00
7824;BME280;3957;48.61947800;9.05303100;2023-05-14T00:29:47;96049.56;;;9.09;100.00
7824;BME280;3957;48.61947800;9.05303100;2023-05-14T00:30:49;96048.72;;;9.08;100.00
7824;BME280;3957;48.61947800;9.05303100;2023-05-14T00:31:51;96045.22;;;9.08;100.00
7824;BME280;3957;48.61947800;9.05303100;2023-05-14T00:32:53;96047.69;;;9.09;100.00
7824;BME280;3957;48.61947800;9.05303100;2023-05-14T00:33:55;96049.56;;;9.09;100.00
7824;BME280;3957;48.61947800;9.05303100;2023-05-14T00:34:56;96052.22;;;9.09;100.00
7824;BME280;3957;48.61947800;9.05303100;2023-05-14T00:35:58;96044.22;;;9.09;100.00
7824;BME280;3957;48.61947800;9.05303100;2023-05-14T00:37:00;96043.38;;;9.08;100.00
7824;BME280;3957;48.61947800;9.05303100;2023-05-14T00:38:02;96044.22;;;9.09;100.00
7824;BME280;3957;48.61947800;9.05303100;2023-05-14T00:39:04;96038.88;;;9.09;100.00
7824;BME280;3957;48.61947800;9.05303100;2023-05-14T00:40:06;96041.53;;;9.09;100.00
7824;BME280;3957;48.61947800;9.05303100;2023-05-14T00:41:08;96036.19;;;9.09;100.00
7824;BME280;3957;48.61947800;9.05303100;2023-05-14T00:42:10;96034.16;;;9.11;100.00
7824;BME280;3957;48.61947800;9.05303100;2023-05-14T00:43:12;96043.16;;;9.10;100.00
7824;BME280;3957;48.61947800;9.05303100;2023-05-14T00:44:13;96037.00;;;9.09;100.00
7824;BME280;3957;48.61947800;9.05303100;2023-05-14T00:45:15;96037.00;;;9.09;100.00
7824;BME280;3957;48.61947800;9.05303100;2023-05-14T00:46:16;96030.88;;;9.09;100.00
7824;BME280;3957;48.61947800;9.05303100;2023-05-14T00:47:18;96032.69;;;9.08;100.00
7824;BME280;3957;48.61947800;9.05303100;2023-05-14T00:48:21;96034.16;;;9.11;100.00
7824;BME280;3957;48.61947800;9.05303100;2023-05-14T00:49:24;96030.66;;;9.10;100.00
7824;BME280;3957;48.61947800;9.05303100;2023-05-14T00:50:26;96024.88;;;9.07;100.00
7824;BME280;3957;48.61947800;9.05303100;2023-05-14T00:51:28;96032.88;;;9.07;100.00
7824;BME280;3957;48.61947800;9.05303100;2023-05-14T00:52:30;96026.94;;;9.05;100.00
7824;BME280;3957;48.61947800;9.05303100;2023-05-14T00:53:32;96022.63;;;9.04;100.00
7824;BME280;3957;48.61947800;9.05303100;2023-05-14T00:54:34;96028.38;;;9.07;100.00
7824;BME280;3957;48.61947800;9.05303100;2023-05-14T00:55:37;96028.75;;;9.04;100.00
7824;BME280;3957;48.61947800;9.05303100;2023-05-14T00:56:38;96021.59;;;9.05;100.00
7824;BME280;3957;48.61947800;9.05303100;2023-05-14T00:57:40;96026.09;;;9.04;100.00
7824;BME280;3957;48.61947800;9.05303100;2023-05-14T00:58:42;96024.28;;;9.05;100.00
7824;BME280;3957;48.61947800;9.05303100;2023-05-14T00:59:44;96039.44;;;9.04;100.00
7824;BME280;3957;48.61947800;9.05303100;2023-05-14T01:00:45;96024.28;;;9.05;100.00
7824;BME280;3957;48.61947800;9.05303100;2023-05-14T01:01:47;96027.09;;;9.03;100.00
7824;BME280;3957;48.61947800;9.05303100;2023-05-14T01:02:48;96024.44;;;9.03;100.00
7824;BME280;3957;48.61947800;9.05303100;2023-05-14T01:03:50;96016.63;;;9.01;100.00
7824;BME280;3957;48.61947800;9.05303100;2023-05-14T01:04:54;96021.16;;;9.01;100.00
7824;BME280;3957;48.61947800;9.05303100;2023-05-14T01:06:16;96020.50;;;8.99;100.00
7824;BME280;3957;48.61947800;9.05303100;2023-05-14T01:10:05;96014.34;;;8.98;100.00
7824;BME280;3957;48.61947800;9.05303100;2023-05-14T01:13:07;96018.03;;;8.97;100.00
7824;BME280;3957;48.61947800;9.05303100;2023-05-14T01:14:23;96016.22;;;8.98;100.00
7824;BME280;3957;48.61947800;9.05303100;2023-05-14T01:15:32;96015.78;;;8.94;100.00
7824;BME280;3957;48.61947800;9.05303100;2023-05-14T01:16:36;96017.19;;;8.90;100.00
7824;BME280;3957;48.61947800;9.05303100;2023-05-14T01:17:45;96012.84;;;8.89;100.00
7824;BME280;3957;48.61947800;9.05303100;2023-05-14T01:18:49;96019.03;;;8.90;100.00
7824;BME280;3957;48.61947800;9.05303100;2023-05-14T01:19:54;96020.84;;;8.89;100.00
7824;BME280;3957;48.61947800;9.05303100;2023-05-14T01:20:55;96016.38;;;8.90;100.00
7824;BME280;3957;48.61947800;9.05303100;2023-05-14T01:21:57;96019.03;;;8.90;100.00
7824;BME280;3957;48.61947800;9.05303100;2023-05-14T01:22:58;96024.16;;;8.91;100.00
7824;BME280;3957;48.61947800;9.05303100;2023-05-14T01:24:00;96019.66;;;8.92;100.00
7824;BME280;3957;48.61947800;9.05303100;2023-05-14T01:25:03;96008.34;;;8.90;100.00
7824;BME280;3957;48.61947800;9.05303100;2023-05-14T01:26:05;96006.91;;;8.87;100.00
7824;BME280;3957;48.61947800;9.05303100;2023-05-14T01:27:24;96009.56;;;8.87;100.00
7824;BME280;3957;48.61947800;9.05303100;2023-05-14T01:28:31;96008.94;;;8.85;100.00
7824;BME280;3957;48.61947800;9.05303100;2023-05-14T01:29:36;96010.97;;;8.83;100.00
7824;BME280;3957;48.61947800;9.05303100;2023-05-14T01:30:44;96009.75;;;8.85;100.00
7824;BME280;3957;48.61947800;9.05303100;2023-05-14T01:31:48;96011.59;;;8.85;100.00
7824;BME280;3957;48.61947800;9.05303100;2023-05-14T01:32:54;96012.63;;;8.84;100.00
7824;BME280;3957;48.61947800;9.05303100;2023-05-14T01:33:57;96007.50;;;8.82;100.00
7824;BME280;3957;48.61947800;9.05303100;2023-05-14T01:35:00;96005.63;;;8.83;100.00
7824;BME280;3957;48.61947800;9.05303100;2023-05-14T01:36:03;96019.78;;;8.83;100.00
7824;BME280;3957;48.61947800;9.05303100;2023-05-14T01:37:06;96012.63;;;8.84;100.00
7824;BME280;3957;48.61947800;9.05303100;2023-05-14T01:38:10;96007.91;;;8.86;100.00
7824;BME280;3957;48.61947800;9.05303100;2023-05-14T01:39:13;96015.31;;;8.84;100.00
7824;BME280;3957;48.61947800;9.05303100;2023-05-14T01:40:15;96013.44;;;8.84;100.00
7824;BME280;3957;48.61947800;9.05303100;2023-05-14T01:41:18;96014.25;;;8.85;100.00
7824;BME280;3957;48.61947800;9.05303100;2023-05-14T01:42:19;96009.97;;;8.84;100.00
7824;BME280;3957;48.61947800;9.05303100;2023-05-14T01:43:22;96016.13;;;8.84;100.00
7824;BME280;3957;48.61947800;9.05303100;2023-05-14T01:44:24;96007.91;;;8.86;100.00
7824;BME280;3957;48.61947800;9.05303100;2023-05-14T01:45:26;96007.09;;;8.85;100.00
7824;BME280;3957;48.61947800;9.05303100;2023-05-14T01:46:31;96006.25;;;8.85;100.00
7824;BME280;3957;48.61947800;9.05303100;2023-05-14T01:47:33;96002.78;;;8.84;100.00
7824;BME280;3957;48.61947800;9.05303100;2023-05-14T01:48:35;96008.94;;;8.85;100.00
7824;BME280;3957;48.61947800;9.05303100;2023-05-14T01:49:38;96006.25;;;8.85;100.00
7824;BME280;3957;48.61947800;9.05303100;2023-05-14T01:50:39;96009.13;;;8.83;100.00
7824;BME280;3957;48.61947800;9.05303100;2023-05-14T01:51:41;96006.25;;;8.85;100.00
7824;BME280;3957;48.61947800;9.05303100;2023-05-14T01:52:43;96003.59;;;8.85;100.00
7824;BME280;3957;48.61947800;9.05303100;2023-05-14T01:53:44;96004.44;;;8.85;100.00
7824;BME280;3957;48.61947800;9.05303100;2023-05-14T01:54:47;96004.63;;;8.84;100.00
7824;BME280;3957;48.61947800;9.05303100;2023-05-14T01:55:48;96009.13;;;8.83;100.00
7824;BME280;3957;48.61947800;9.05303100;2023-05-14T01:56:50;96008.72;;;8.80;100.00
7824;BME280;3957;48.61947800;9.05303100;2023-05-14T01:57:52;96001.50;;;8.80;100.00
7824;BME280;3957;48.61947800;9.05303100;2023-05-14T01:58:54;96003.38;;;8.80;100.00
7824;BME280;3957;48.61947800;9.05303100;2023-05-14T01:59:57;96005.00;;;8.81;100.00
7824;BME280;3957;48.61947800;9.05303100;2023-05-14T02:01:02;96000.69;;;8.80;100.00
7824;BME280;3957;48.61947800;9.05303100;2023-05-14T02:02:04;95998.22;;;8.78;100.00
7824;BME280;3957;48.61947800;9.05303100;2023-05-14T02:03:05;96000.44;;;8.75;100.00
7824;BME280;3957;48.61947800;9.05303100;2023-05-14T02:04:07;96000.44;;;8.75;100.00
7824;BME280;3957;48.61947800;9.05303100;2023-05-14T02:05:10;96004.53;;;8.71;100.00
7824;BME280;3957;48.61947800;9.05303100;2023-05-14T02:06:12;96001.22;;;8.68;100.00
7824;BME280;3957;48.61947800;9.05303100;2023-05-14T02:07:14;96007.59;;;8.67;100.00
7824;BME280;3957;48.61947800;9.05303100;2023-05-14T02:08:15;96003.47;;;8.65;100.00
7824;BME280;3957;48.61947800;9.05303100;2023-05-14T02:09:17;96008.53;;;8.60;100.00
7824;BME280;3957;48.61947800;9.05303100;2023-05-14T02:10:18;96001.75;;;8.57;100.00
7824;BME280;3957;48.61947800;9.05303100;2023-05-14T02:11:23;96002.34;;;8.53;100.00
7824;BME280;3957;48.61947800;9.05303100;2023-05-14T02:12:25;96002.72;;;8.49;100.00
7824;BME280;3957;48.61947800;9.05303100;2023-05-14T02:13:26;96000.78;;;8.43;100.00
7824;BME280;3957;48.61947800;9.05303100;2023-05-14T02:14:29;96008.38;;;8.40;100.00
7824;BME280;3957;48.61947800;9.05303100;2023-05-14T02:15:31;96004.22;;;8.37;100.00
7824;BME280;3957;48.61947800;9.05303100;2023-05-14T02:16:32;96008.31;;;8.33;100.00
7824;BME280;3957;48.61947800;9.05303100;2023-05-14T02:17:34;96005.56;;;8.26;100.00
7824;BME280;3957;48.61947800;9.05303100;2023-05-14T02:18:36;95997.50;;;8.20;100.00
7824;BME280;3957;48.61947800;9.05303100;2023-05-14T02:19:37;96003.63;;;8.13;100.00
7824;BME280;3957;48.61947800;9.05303100;2023-05-14T02:20:39;96001.50;;;8.09;100.00
7824;BME280;3957;48.61947800;9.05303100;2023-05-14T02:21:41;95999.41;;;8.04;100.00
7824;BME280;3957;48.61947800;9.05303100;2023-05-14T02:22:42;96002.81;;;7.98;100.00
7824;BME280;3957;48.61947800;9.05303100;2023-05-14T02:23:46;96000.75;;;7.93;100.00
7824;BME280;3957;48.61947800;9.05303100;2023-05-14T02:24:49;96004.19;;;7.87;100.00
7824;BME280;3957;48.61947800;9.05303100;2023-05-14T02:25:51;95998.78;;;7.80;100.00
7824;BME280;3957;48.61947800;9.05303100;2023-05-14T02:26:53;95998.50;;;7.75;100.00
7824;BME280;3957;48.61947800;9.05303100;2023-05-14T02:27:54;96002.75;;;7.70;100.00
7824;BME280;3957;48.61947800;9.05303100;2023-05-14T02:28:56;95996.75;;;7.68;100.00
7824;BME280;3957;48.61947800;9.05303100;2023-05-14T02:29:58;96002.28;;;7.66;100.00
7824;BME280;3957;48.61947800;9.05303100;2023-05-14T02:31:01;96002.28;;;7.66;100.00
7824;BME280;3957;48.61947800;9.05303100;2023-05-14T02:32:02;95999.19;;;7.62;100.00
7824;BME280;3957;48.61947800;9.05303100;2023-05-14T02:33:04;95997.91;;;7.58;100.00
7824;BME280;3957;48.61947800;9.05303100;2023-05-14T02:34:06;95998.91;;;7.57;100.00
7824;BME280;3957;48.61947800;9.05303100;2023-05-14T02:35:08;96007.91;;;7.56;100.00
7824;BME280;3957;48.61947800;9.05303100;2023-05-14T02:36:10;95998.91;;;7.57;100.00
7824;BME280;3957;48.61947800;9.05303100;2023-05-14T02:37:12;95999.91;;;7.56;100.00
7824;BME280;3957;48.61947800;9.05303100;2023-05-14T02:38:14;96006.91;;;7.57;100.00
7824;BME280;3957;48.61947800;9.05303100;2023-05-14T02:39:15;96005.91;;;7.58;100.00
7824;BME280;3957;48.61947800;9.05303100;2023-05-14T02:40:19;96003.84;;;7.60;100.00
7824;BME280;3957;48.61947800;9.05303100;2023-05-14T02:41:20;96005.53;;;7.61;100.00
7824;BME280;3957;48.61947800;9.05303100;2023-05-14T02:42:22;96004.31;;;7.64;100.00
7824;BME280;3957;48.61947800;9.05303100;2023-05-14T02:43:23;96013.78;;;7.66;100.00
7824;BME280;3957;48.61947800;9.05303100;2023-05-14T02:44:25;96010.72;;;7.70;100.00
7824;BME280;3957;48.61947800;9.05303100;2023-05-14T02:45:27;96013.22;;;7.71;100.00
7824;BME280;3957;48.61947800;9.05303100;2023-05-14T02:46:30;96010.34;;;7.73;100.00
7824;BME280;3957;48.61947800;9.05303100;2023-05-14T02:47:32;96014.28;;;7.77;100.00
7824;BME280;3957;48.61947800;9.05303100;2023-05-14T02:48:37;96020.69;;;7.82;100.00
7824;BME280;3957;48.61947800;9.05303100;2023-05-14T02:49:40;96011.50;;;7.85;100.00
7824;BME280;3957;48.61947800;9.05303100;2023-05-14T02:50:42;96010.50;;;7.86;100.00
7824;BME280;3957;48.61947800;9.05303100;2023-05-14T02:51:43;96019.78;;;7.90;100.00
7824;BME280;3957;48.61947800;9.05303100;2023-05-14T02:52:45;96009.53;;;7.94;100.00
7824;BME280;3957;48.61947800;9.05303100;2023-05-14T02:53:47;96015.53;;;7.96;100.00
7824;BME280;3957;48.61947800;9.05303100;2023-05-14T02:54:48;96011.84;;;7.97;100.00
7824;BME280;3957;48.61947800;9.05303100;2023-05-14T02:55:50;96009.63;;;8.00;100.00
7824;BME280;3957;48.61947800;9.05303100;2023-05-14T02:56:51;96018.25;;;8.03;100.00
7824;BME280;3957;48.61947800;9.05303100;2023-05-14T02:57:53;96016.22;;;8.05;100.00
7824;BME280;3957;48.61947800;9.05303100;2023-05-14T02:58:54;96017.06;;;8.05;100.00
7824;BME280;3957;48.61947800;9.05303100;2023-05-14T02:59:57;96016.03;;;8.06;100.00
7824;BME280;3957;48.61947800;9.05303100;2023-05-14T03:00:59;96011.53;;;8.07;100.00
7824;BME280;3957;48.61947800;9.05303100;2023-05-14T03:02:01;96018.50;;;8.08;100.00
7824;BME280;3957;48.61947800;9.05303100;2023-05-14T03:03:03;96019.53;;;8.07;100.00
7824;BME280;3957;48.61947800;9.05303100;2023-05-14T03:04:06;96019.34;;;8.08;100.00
7824;BME280;3957;48.61947800;9.05303100;2023-05-14T03:05:08;96019.78;;;8.12;100.00
7824;BME280;3957;48.61947800;9.05303100;2023-05-14T03:06:09;96016.28;;;8.11;100.00
7824;BME280;3957;48.61947800;9.05303100;2023-05-14T03:07:11;96015.28;;;8.12;100.00
7824;BME280;3957;48.61947800;9.05303100;2023-05-14T03:08:12;96009.75;;;8.14;100.00
7824;BME280;3957;48.61947800;9.05303100;2023-05-14T03:09:14;96016.56;;;8.16;100.00
7824;BME280;3957;48.61947800;9.05303100;2023-05-14T03:10:15;96015.53;;;8.17;100.00
7824;BME280;3957;48.61947800;9.05303100;2023-05-14T03:11:17;96022.50;;;8.18;100.00
7824;BME280;3957;48.61947800;9.05303100;2023-05-14T03:12:18;96022.16;;;8.22;100.00
7824;BME280;3957;48.61947800;9.05303100;2023-05-14T03:13:21;96015.16;;;8.21;100.00
7824;BME280;3957;48.61947800;9.05303100;2023-05-14T03:14:22;96016.97;;;8.20;100.00
7824;BME280;3957;48.61947800;9.05303100;2023-05-14T03:15:24;96022.97;;;8.22;100.00
7824;BME280;3957;48.61947800;9.05303100;2023-05-14T03:16:26;96013.97;;;8.23;100.00
7824;BME280;3957;48.61947800;9.05303100;2023-05-14T03:17:27;96023.56;;;8.24;100.00
7824;BME280;3957;48.61947800;9.05303100;2023-05-14T03:18:30;96020.91;;;8.24;100.00
7824;BME280;3957;48.61947800;9.05303100;2023-05-14T03:19:33;96016.81;;;8.22;100.00
7824;BME280;3957;48.61947800;9.05303100;2023-05-14T03:20:35;96021.31;;;8.21;100.00
7824;BME280;3957;48.61947800;9.05303100;2023-05-14T03:21:37;96016.44;;;8.25;100.00
7824;BME280;3957;48.61947800;9.05303100;2023-05-14T03:22:38;96019.09;;;8.25;100.00
7824;BME280;3957;48.61947800;9.05303100;2023-05-14T03:23:40;96011.28;;;8.23;100.00
7824;BME280;3957;48.61947800;9.05303100;2023-05-14T03:24:41;96016.44;;;8.25;100.00
7824;BME280;3957;48.61947800;9.05303100;2023-05-14T03:25:43;96017.03;;;8.27;100.00
7824;BME280;3957;48.61947800;9.05303100;2023-05-14T03:26:44;96015.22;;;8.27;100.00
7824;BME280;3957;48.61947800;9.05303100;2023-05-14T03:27:47;96006.38;;;8.27;100.00
7824;BME280;3957;48.61947800;9.05303100;2023-05-14T03:28:50;96010.50;;;8.29;100.00
7824;BME280;3957;48.61947800;9.05303100;2023-05-14T03:29:51;96011.53;;;8.28;100.00
7824;BME280;3957;48.61947800;9.05303100;2023-05-14T03:30:53;96009.91;;;8.27;100.00
7824;BME280;3957;48.61947800;9.05303100;2023-05-14T03:31:54;96006.38;;;8.27;100.00
7824;BME280;3957;48.61947800;9.05303100;2023-05-14T03:32:56;96011.16;;;8.31;100.00
7824;BME280;3957;48.61947800;9.05303100;2023-05-14T03:33:58;96017.50;;;8.30;100.00
7824;BME280;3957;48.61947800;9.05303100;2023-05-14T03:34:59;96013.19;;;8.29;100.00
7824;BME280;3957;48.61947800;9.05303100;2023-05-14T03:36:01;96005.38;;;8.28;100.00
7824;BME280;3957;48.61947800;9.05303100;2023-05-14T03:37:04;96011.53;;;8.28;100.00
7824;BME280;3957;48.61947800;9.05303100;2023-05-14T03:38:06;96010.72;;;8.28;100.00
7824;BME280;3957;48.61947800;9.05303100;2023-05-14T03:39:08;96013.19;;;8.29;100.00
7824;BME280;3957;48.61947800;9.05303100;2023-05-14T03:40:10;96016.50;;;8.31;100.00
7824;BME280;3957;48.61947800;9.05303100;2023-05-14T03:41:12;96013.19;;;8.29;100.00
7824;BME280;3957;48.61947800;9.05303100;2023-05-14T03:42:13;96012.16;;;8.30;100.00
7824;BME280;3957;48.61947800;9.05303100;2023-05-14T03:43:15;96013.38;;;8.28;100.00
7824;BME280;3957;48.61947800;9.05303100;2023-05-14T03:44:17;96015.22;;;8.27;100.00
7824;BME280;3957;48.61947800;9.05303100;2023-05-14T03:45:18;96015.84;;;8.29;100.00
7824;BME280;3957;48.61947800;9.05303100;2023-05-14T03:46:20;96017.50;;;8.30;100.00
7824;BME280;3957;48.61947800;9.05303100;2023-05-14T03:47:22;96013.97;;;8.23;100.00
7824;BME280;3957;48.61947800;9.05303100;2023-05-14T03:48:24;96014.56;;;8.25;100.00
7824;BME280;3957;48.61947800;9.05303100;2023-05-14T03:49:26;96009.91;;;8.27;100.00
7824;BME280;3957;48.61947800;9.05303100;2023-05-14T03:50:28;96014.38;;;8.27;100.00
7824;BME280;3957;48.61947800;9.05303100;2023-05-14T03:51:29;96015.22;;;8.27;100.00
7824;BME280;3957;48.61947800;9.05303100;2023-05-14T03:52:32;96015.25;;;8.34;100.00
7824;BME280;3957;48.61947800;9.05303100;2023-05-14T03:53:36;96007.22;;;8.27;100.00
7824;BME280;3957;48.61947800;9.05303100;2023-05-14T03:54:38;96008.03;;;8.28;100.00
7824;BME280;3957;48.61947800;9.05303100;2023-05-14T03:55:41;96015.84;;;8.29;100.00
7824;BME280;3957;48.61947800;9.05303100;2023-05-14T03:56:44;96012.97;;;8.31;100.00
7824;BME280;3957;48.61947800;9.05303100;2023-05-14T03:57:47;96011.53;;;8.28;100.00
7824;BME280;3957;48.61947800;9.05303100;2023-05-14T03:58:49;96007.03;;;8.29;100.00
7824;BME280;3957;48.61947800;9.05303100;2023-05-14T03:59:50;96012.16;;;8.30;100.00
7824;BME280;3957;48.61947800;9.05303100;2023-05-14T04:00:53;96011.97;;;8.32;100.00
7824;BME280;3957;48.61947800;9.05303100;2023-05-14T04:01:54;96005.44;;;8.34;100.00
7824;BME280;3957;48.61947800;9.05303100;2023-05-14T04:02:56;96009.31;;;8.32;100.00
7824;BME280;3957;48.61947800;9.05303100;2023-05-14T04:03:57;96013.81;;;8.31;100.00
7824;BME280;3957;48.61947800;9.05303100;2023-05-14T04:04:59;96011.59;;;8.35;100.00
7824;BME280;3957;48.61947800;9.05303100;2023-05-14T04:06:01;96008.72;;;8.37;100.00
7824;BME280;3957;48.61947800;9.05303100;2023-05-14T04:07:03;96003.59;;;8.35;100.00
7824;BME280;3957;48.61947800;9.05303100;2023-05-14T04:08:04;96006.44;;;8.33;100.00
7824;BME280;3957;48.61947800;9.05303100;2023-05-14T04:09:06;96014.25;;;8.35;100.00
7824;BME280;3957;48.61947800;9.05303100;2023-05-14T04:10:08;96010.56;;;8.36;100.00
7824;BME280;3957;48.61947800;9.05303100;2023-05-14T04:11:10;96009.56;;;8.37;100.00
7824;BME280;3957;48.61947800;9.05303100;2023-05-14T04:12:12;96013.06;;;8.38;100.00
7824;BME280;3957;48.61947800;9.05303100;2023-05-14T04:13:14;96005.69;;;8.40;100.00
7824;BME280;3957;48.61947800;9.05303100;2023-05-14T04:14:16;96008.38;;;8.40;100.00
7824;BME280;3957;48.61947800;9.05303100;2023-05-14T04:15:18;96010.38;;;8.38;100.00
7824;BME280;3957;48.61947800;9.05303100;2023-05-14T04:16:20;96012.66;;;8.41;100.00
7824;BME280;3957;48.61947800;9.05303100;2023-05-14T04:17:21;96010.38;;;8.38;100.00
7824;BME280;3957;48.61947800;9.05303100;2023-05-14T04:18:23;96010.97;;;8.33;100.00
7824;BME280;3957;48.61947800;9.05303100;2023-05-14T04:19:25;96010.56;;;8.36;100.00
7824;BME280;3957;48.61947800;9.05303100;2023-05-14T04:20:27;96009.75;;;8.36;100.00
7824;BME280;3957;48.61947800;9.05303100;2023-05-14T04:21:28;96005.44;;;8.34;100.00
7824;BME280;3957;48.61947800;9.05303100;2023-05-14T04:22:30;96006.91;;;8.37;100.00
7824;BME280;3957;48.61947800;9.05303100;2023-05-14T04:23:32;96001.38;;;8.39;100.00
7824;BME280;3957;48.61947800;9.05303100;2023-05-14T04:24:34;96010.19;;;8.39;100.00
7824;BME280;3957;48.61947800;9.05303100;2023-05-14T04:25:35;96005.69;;;8.40;100.00
7824;BME280;3957;48.61947800;9.05303100;2023-05-14T04:26:36;96003.03;;;8.40;100.00
7824;BME280;3957;48.61947800;9.05303100;2023-05-14T04:27:38;96004.47;;;8.42;100.00
7824;BME280;3957;48.61947800;9.05303100;2023-05-14T04:28:40;96003.28;;;8.45;100.00
7824;BME280;3957;48.61947800;9.05303100;2023-05-14T04:29:41;95999.63;;;8.46;100.00
7824;BME280;3957;48.61947800;9.05303100;2023-05-14T04:30:43;96002.09;;;8.47;100.00
7824;BME280;3957;48.61947800;9.05303100;2023-05-14T04:31:47;96003.94;;;8.47;100.00
7824;BME280;3957;48.61947800;9.05303100;2023-05-14T04:32:49;95999.88;;;8.51;100.00
7824;BME280;3957;48.61947800;9.05303100;2023-05-14T04:33:51;95999.41;;;8.47;100.00
7824;BME280;3957;48.61947800;9.05303100;2023-05-14T04:34:53;95997.59;;;8.48;100.00
7824;BME280;3957;48.61947800;9.05303100;2023-05-14T04:35:54;95997.19;;;8.51;100.00
7824;BME280;3957;48.61947800;9.05303100;2023-05-14T04:36:56;96002.34;;;8.53;100.00
7824;BME280;3957;48.61947800;9.05303100;2023-05-14T04:37:57;95990.66;;;8.54;100.00
7824;BME280;3957;48.61947800;9.05303100;2023-05-14T04:38:59;95996.81;;;8.54;100.00
7824;BME280;3957;48.61947800;9.05303100;2023-05-14T04:40:01;95995.78;;;8.55;100.00
7824;BME280;3957;48.61947800;9.05303100;2023-05-14T04:41:03;95999.28;;;8.56;100.00
7824;BME280;3957;48.61947800;9.05303100;2023-05-14T04:42:05;95998.88;;;8.59;100.00
7824;BME280;3957;48.61947800;9.05303100;2023-05-14T04:43:07;95996.41;;;8.57;100.00
7824;BME280;3957;48.61947800;9.05303100;2023-05-14T04:44:08;95995.41;;;8.58;100.00
7824;BME280;3957;48.61947800;9.05303100;2023-05-14T04:45:10;95992.75;;;8.58;100.00
7824;BME280;3957;48.61947800;9.05303100;2023-05-14T04:46:13;95988.03;;;8.60;100.00
7824;BME280;3957;48.61947800;9.05303100;2023-05-14T04:47:15;95998.31;;;8.63;100.00
7824;BME280;3957;48.61947800;9.05303100;2023-05-14T04:48:17;95992.16;;;8.63;100.00
7824;BME280;3957;48.61947800;9.05303100;2023-05-14T04:49:19;95992.59;;;8.66;100.00
7824;BME280;3957;48.61947800;9.05303100;2023-05-14T04:50:22;95994.25;;;8.67;100.00
7824;BME280;3957;48.61947800;9.05303100;2023-05-14T04:51:23;96005.13;;;8.66;100.00
7824;BME280;3957;48.61947800;9.05303100;2023-05-14T04:52:25;95999.19;;;8.71;100.00
7824;BME280;3957;48.61947800;9.05303100;2023-05-14T04:53:26;95997.94;;;8.66;100.00
7824;BME280;3957;48.61947800;9.05303100;2023-05-14T04:54:28;96001.03;;;8.70;100.00
7824;BME280;3957;48.61947800;9.05303100;2023-05-14T04:55:30;96003.72;;;8.70;100.00
7824;BME280;3957;48.61947800;9.05303100;2023-05-14T04:56:31;96002.47;;;8.73;100.00
7824;BME280;3957;48.61947800;9.05303100;2023-05-14T04:57:33;96000.66;;;8.73;100.00
7824;BME280;3957;48.61947800;9.05303100;2023-05-14T04:58:34;96003.31;;;8.73;100.00
7824;BME280;3957;48.61947800;9.05303100;2023-05-14T04:59:36;96008.66;;;8.73;100.00
7824;BME280;3957;48.61947800;9.05303100;2023-05-14T05:00:38;96005.34;;;8.71;100.00
7824;BME280;3957;48.61947800;9.05303100;2023-05-14T05:01:40;95997.34;;;8.71;100.00
7824;BME280;3957;48.61947800;9.05303100;2023-05-14T05:02:42;96002.47;;;8.73;100.00